Time;durP1;ratioP1;P1;durP2;ratioP2;P2;SDS_P1;SDS_P2;PMS_P1;PMS_P2;Temp;Humidity;BMP_temperature;BMP_pressure;BME280_temperature;BME280_humidity;BME280_pressure;Samples;Min_cycle;Max_cycle;Signal;HPM_P1;HPM_P2
2023/08/25 00:00:32;;;;;;;;;;;;;;;29.54;48.66;101203.38;5112797;27;19911;-86
2023/08/25 00:02:57;;;;;;;;;;;;;;;29.51;48.79;101200.75;5127104;27;20381;-86
2023/08/25 00:05:22;;;;;;;;;;;;;;;29.50;48.97;101197.16;5123922;27;20455;-86
2023/08/25 00:07:48;;;;;;;;;;;;;;;29.50;48.96;101197.16;5124136;27;20292;-86
2023/08/25 00:10:14;;;;;;;;;;;;;;;29.45;49.28;101208.94;5125107;27;19916;-86
2023/08/25 00:12:39;;;;;;;;;;;;;;;29.45;49.29;101208.94;5117416;27;20002;-86
2023/08/25 00:15:05;;;;;;;;;;;;;;;29.46;49.06;101211.56;5127652;27;19964;-86
2023/08/25 00:17:30;;;;;;;;;;;;;;;29.46;49.15;101210.69;5129252;27;20247;-86
2023/08/25 00:19:56;;;;;;;;;;;;;;;29.43;49.23;101217.00;5117374;27;19942;-87
2023/08/25 00:22:21;;;;;;;;;;;;;;;29.42;49.51;101212.53;5120963;27;20453;-87
2023/08/25 00:24:47;;;;;;;;;;;;;;;29.41;49.57;101217.03;5112503;28;19912;-87
2023/08/25 00:27:12;;;;;;;;;;;;;;;29.42;49.26;101209.84;5112473;27;19921;-86
2023/08/25 00:29:38;;;;;;;;;;;;;;;29.42;49.35;101209.84;5117164;27;20296;-86
2023/08/25 00:32:03;;;;;;;;;;;;;;;29.40;49.34;101200.91;5121105;27;19938;-86
2023/08/25 00:34:29;;;;;;;;;;;;;;;29.37;49.66;101204.53;5114919;27;20427;-86
2023/08/25 00:36:54;;;;;;;;;;;;;;;29.37;49.62;101207.22;5123864;27;19922;-87
2023/08/25 00:39:19;;;;;;;;;;;;;;;29.36;49.89;101210.84;5125509;27;20269;-86
2023/08/25 00:41:45;;;;;;;;;;;;;;;29.35;49.62;101206.38;5129689;27;20385;-86
2023/08/25 00:44:10;;;;;;;;;;;;;;;29.33;49.52;101208.19;5126713;27;20411;-86
2023/08/25 00:46:36;;;;;;;;;;;;;;;29.33;49.72;101207.31;5124549;27;20464;-86
2023/08/25 00:49:02;;;;;;;;;;;;;;;29.34;49.77;101210.00;5112141;27;19977;-86
2023/08/25 00:51:28;;;;;;;;;;;;;;;29.33;49.91;101199.25;5112196;27;19962;-86
2023/08/25 00:53:53;;;;;;;;;;;;;;;29.32;49.63;101205.56;5134044;27;19950;-86
2023/08/25 00:56:19;;;;;;;;;;;;;;;29.28;49.78;101199.31;5103359;27;20010;-86
2023/08/25 00:58:44;;;;;;;;;;;;;;;29.29;50.12;101200.22;5126983;27;19915;-86
2023/08/25 01:01:09;;;;;;;;;;;;;;;29.28;49.79;101199.31;5110582;27;19916;-85
2023/08/25 01:03:38;;;;;;;;;;;;;;;29.28;50.02;101203.84;5093734;28;19964;-84
2023/08/25 01:06:03;;;;;;;;;;;;;;;29.27;50.04;101199.34;5120206;27;19915;-87
2023/08/25 01:08:29;;;;;;;;;;;;;;;29.17;50.80;101204.00;5116815;27;20538;-87
2023/08/25 01:11:14;;;;;;;;;;;;;;;29.15;50.79;101217.47;5119307;27;19915;-86
2023/08/25 01:13:46;;;;;;;;;;;;;;;29.20;50.64;101217.41;5132236;27;19916;-86
2023/08/25 01:16:12;;;;;;;;;;;;;;;29.18;50.78;101217.41;5114211;27;19929;-86
2023/08/25 01:18:38;;;;;;;;;;;;;;;29.15;51.04;101224.66;5116731;27;19916;-86
2023/08/25 01:21:04;;;;;;;;;;;;;;;29.12;50.88;101216.63;5122169;27;20353;-87
2023/08/25 01:23:33;;;;;;;;;;;;;;;29.15;50.73;101216.59;5090415;27;19919;-86
2023/08/25 01:25:59;;;;;;;;;;;;;;;29.15;50.98;101222.84;5106946;27;19915;-87
2023/08/25 01:28:25;;;;;;;;;;;;;;;29.13;51.00;101218.41;5093218;28;19927;-86
2023/08/25 01:30:54;;;;;;;;;;;;;;;29.16;50.82;101224.63;5110793;28;19951;-86
2023/08/25 01:33:20;;;;;;;;;;;;;;;29.15;50.86;101230.03;5124055;27;20016;-87
2023/08/25 01:35:45;;;;;;;;;;;;;;;29.12;50.88;101217.50;5122586;27;20385;-86
2023/08/25 01:38:16;;;;;;;;;;;;;;;29.13;50.64;101216.59;5122160;27;19968;-86
2023/08/25 01:40:47;;;;;;;;;;;;;;;29.12;50.57;101222.00;5101141;27;19916;-87
2023/08/25 01:43:13;;;;;;;;;;;;;;;29.10;50.92;101213.94;5117256;27;19915;-87
2023/08/25 01:45:40;;;;;;;;;;;;;;;29.10;50.83;101213.94;5126142;27;19942;-86
2023/08/25 01:48:06;;;;;;;;;;;;;;;29.10;51.01;101202.31;5113527;27;19920;-86
2023/08/25 01:50:32;;;;;;;;;;;;;;;29.07;51.18;101197.84;5121692;27;20433;-86
2023/08/25 01:52:57;;;;;;;;;;;;;;;29.08;51.02;101209.47;5106215;27;19922;-87
2023/08/25 01:55:23;;;;;;;;;;;;;;;29.08;50.81;101206.78;5126409;27;20002;-87
2023/08/25 01:57:48;;;;;;;;;;;;;;;29.02;51.09;101205.09;5128220;27;20411;-86
2023/08/25 02:00:14;;;;;;;;;;;;;;;29.06;50.95;101197.84;5115615;27;20413;-86
2023/08/25 02:02:39;;;;;;;;;;;;;;;29.06;50.84;101203.22;5129831;27;20421;-87
2023/08/25 02:05:05;;;;;;;;;;;;;;;29.05;50.86;101196.97;5121713;27;19911;-86
2023/08/25 02:07:30;;;;;;;;;;;;;;;29.05;51.09;101206.84;5126058;27;20526;-87
2023/08/25 02:09:55;;;;;;;;;;;;;;;29.02;50.83;101202.41;5110530;28;19922;-87
2023/08/25 02:12:21;;;;;;;;;;;;;;;29.02;51.03;101205.09;5125003;27;20373;-87
2023/08/25 02:14:46;;;;;;;;;;;;;;;28.98;51.29;101200.69;5125492;28;19919;-87
2023/08/25 02:17:12;;;;;;;;;;;;;;;28.98;51.15;101198.00;5113604;28;19958;-87
2023/08/25 02:19:37;;;;;;;;;;;;;;;28.99;51.23;101210.50;5121956;28;19919;-87
2023/08/25 02:22:03;;;;;;;;;;;;;;;28.99;51.25;101215.91;5105612;28;20338;-87
2023/08/25 02:24:30;;;;;;;;;;;;;;;28.99;51.26;101218.59;5112603;28;19916;-87
2023/08/25 02:26:55;;;;;;;;;;;;;;;28.96;51.33;101213.25;5130972;28;19963;-87
2023/08/25 02:29:21;;;;;;;;;;;;;;;28.96;51.24;101215.94;5118078;28;19966;-86
2023/08/25 02:31:47;;;;;;;;;;;;;;;28.95;51.32;101215.03;5119871;28;19922;-87
2023/08/25 02:34:12;;;;;;;;;;;;;;;28.94;51.03;101207.03;5124176;27;19916;-86
2023/08/25 02:36:38;;;;;;;;;;;;;;;28.94;51.05;101210.59;5120257;27;20414;-88
2023/08/25 02:39:03;;;;;;;;;;;;;;;28.94;51.11;101212.41;5113718;27;19915;-87
2023/08/25 02:41:29;;;;;;;;;;;;;;;28.94;51.38;101215.09;5116127;28;19912;-87
2023/08/25 02:43:54;;;;;;;;;;;;;;;28.93;51.21;101210.59;5121721;27;19915;-87
2023/08/25 02:46:19;;;;;;;;;;;;;;;28.93;51.27;101218.66;5126541;27;19919;-86
2023/08/25 02:48:45;;;;;;;;;;;;;;;28.92;51.37;101216.91;5118281;27;19958;-87
2023/08/25 02:51:10;;;;;;;;;;;;;;;28.90;51.27;101213.34;5125894;27;20407;-87
2023/08/25 02:53:36;;;;;;;;;;;;;;;28.91;51.07;101217.81;5127920;27;20384;-86
2023/08/25 02:56:02;;;;;;;;;;;;;;;28.89;51.23;101222.31;5119668;27;19942;-86
2023/08/25 02:58:27;;;;;;;;;;;;;;;28.88;51.42;101229.50;5097362;28;19911;-87
2023/08/25 03:00:53;;;;;;;;;;;;;;;28.88;51.51;101231.31;5121511;27;19912;-87
2023/08/25 03:03:18;;;;;;;;;;;;;;;28.83;51.59;101240.31;5134546;27;20445;-87
2023/08/25 03:05:44;;;;;;;;;;;;;;;28.86;51.61;101238.50;5129384;27;20379;-86
2023/08/25 03:08:12;;;;;;;;;;;;;;;28.83;51.75;101242.13;5110303;27;19916;-86
2023/08/25 03:10:38;;;;;;;;;;;;;;;28.85;51.67;101251.06;5115430;28;19919;-86
2023/08/25 03:13:03;;;;;;;;;;;;;;;28.86;51.61;101254.63;5126317;27;19915;-85
2023/08/25 03:15:29;;;;;;;;;;;;;;;28.83;51.81;101251.06;5128840;27;20689;-88
2023/08/25 03:17:55;;;;;;;;;;;;;;;28.82;51.71;101260.03;5117814;27;19923;-90
2023/08/25 03:20:20;;;;;;;;;;;;;;;28.82;51.59;101267.22;5098812;28;20408;-91
2023/08/25 03:22:46;;;;;;;;;;;;;;;28.84;51.81;101265.41;5125796;27;20431;-91
2023/08/25 03:25:11;;;;;;;;;;;;;;;28.83;51.51;101263.63;5105093;28;19949;-90
2023/08/25 03:27:37;;;;;;;;;;;;;;;28.81;51.64;101265.47;5123456;27;20415;-87
2023/08/25 03:30:04;;;;;;;;;;;;;;;28.78;51.59;101257.41;5126777;27;19965;-87
2023/08/25 03:32:30;;;;;;;;;;;;;;;28.80;51.51;101256.47;5116964;27;19915;-87
2023/08/25 03:34:55;;;;;;;;;;;;;;;28.79;51.56;101253.84;5102063;27;20300;-87
2023/08/25 03:37:21;;;;;;;;;;;;;;;28.77;51.57;101251.16;5113849;27;20412;-87
2023/08/25 03:39:46;;;;;;;;;;;;;;;28.77;51.54;101253.84;5113395;27;19938;-87
2023/08/25 03:42:12;;;;;;;;;;;;;;;28.76;51.63;101254.75;5101943;27;19922;-87
2023/08/25 03:44:37;;;;;;;;;;;;;;;28.75;51.69;101260.16;5115851;27;20377;-87
2023/08/25 03:47:03;;;;;;;;;;;;;;;28.73;51.64;101257.47;5121096;27;19923;-85
2023/08/25 03:49:30;;;;;;;;;;;;;;;28.73;51.76;101253.91;5116351;27;19923;-85
2023/08/25 03:51:56;;;;;;;;;;;;;;;28.72;51.69;101250.31;5111454;27;19923;-87
2023/08/25 03:54:22;;;;;;;;;;;;;;;28.70;51.77;101246.78;5118411;27;20427;-87
2023/08/25 03:56:47;;;;;;;;;;;;;;;28.70;51.75;101251.25;5123272;27;19962;-87
2023/08/25 03:59:13;;;;;;;;;;;;;;;28.73;51.78;101252.09;5120156;27;19916;-88
2023/08/25 04:01:38;;;;;;;;;;;;;;;28.69;51.67;101245.00;5109909;27;20288;-89
2023/08/25 04:04:03;;;;;;;;;;;;;;;28.68;51.74;101242.31;5102928;27;20355;-88
2023/08/25 04:06:29;;;;;;;;;;;;;;;28.69;51.66;101242.31;5126270;27;20006;-89
2023/08/25 04:08:54;;;;;;;;;;;;;;;28.68;51.94;101240.53;5115511;27;20392;-89
2023/08/25 04:11:20;;;;;;;;;;;;;;;28.66;52.02;101237.00;5126635;27;19922;-88
2023/08/25 04:13:45;;;;;;;;;;;;;;;28.65;51.95;101237.88;5104809;28;20354;-88
2023/08/25 04:16:11;;;;;;;;;;;;;;;28.63;52.00;101232.53;5113606;27;20448;-87
2023/08/25 04:18:36;;;;;;;;;;;;;;;28.63;51.87;101242.38;5112011;28;20445;-89
2023/08/25 04:21:01;;;;;;;;;;;;;;;28.59;51.99;101244.22;5101765;28;20003;-88
2023/08/25 04:23:28;;;;;;;;;;;;;;;28.59;51.70;101257.66;5114090;28;19946;-89
2023/08/25 04:25:55;;;;;;;;;;;;;;;28.56;52.04;101257.72;5118425;27;19918;-89
2023/08/25 04:28:20;;;;;;;;;;;;;;;28.59;52.08;101270.22;5125831;27;19916;-89
2023/08/25 04:30:47;;;;;;;;;;;;;;;28.57;51.77;101262.16;5115031;27;19919;-88
2023/08/25 04:33:12;;;;;;;;;;;;;;;28.59;51.76;101263.03;5117938;27;20026;-88
2023/08/25 04:35:38;;;;;;;;;;;;;;;28.58;51.95;101269.31;5109688;27;20398;-88
2023/08/25 04:38:03;;;;;;;;;;;;;;;28.58;51.98;101263.06;5126970;27;19915;-89
2023/08/25 04:40:29;;;;;;;;;;;;;;;28.57;51.94;101266.66;5114160;27;19964;-88
2023/08/25 04:42:54;;;;;;;;;;;;;;;28.55;51.87;101258.59;5108751;28;20372;-88
2023/08/25 04:45:19;;;;;;;;;;;;;;;28.57;51.98;101258.59;5124420;27;19919;-88
2023/08/25 04:47:45;;;;;;;;;;;;;;;28.57;52.00;101263.97;5112441;28;19916;-88
2023/08/25 04:50:10;;;;;;;;;;;;;;;28.56;52.01;101267.56;5098864;27;19919;-88
2023/08/25 04:52:36;;;;;;;;;;;;;;;28.55;51.96;101273.84;5121247;27;19916;-86
2023/08/25 04:55:02;;;;;;;;;;;;;;;28.56;51.99;101267.56;5118742;27;19916;-88
2023/08/25 04:57:28;;;;;;;;;;;;;;;28.53;51.87;101260.44;5122590;27;19926;-91
2023/08/25 04:59:53;;;;;;;;;;;;;;;28.51;52.09;101264.03;5109254;27;20296;-88
2023/08/25 05:02:19;;;;;;;;;;;;;;;28.52;52.02;101264.03;5105635;27;19916;-87
2023/08/25 05:04:44;;;;;;;;;;;;;;;28.51;51.98;101264.03;5119685;27;20398;-88
2023/08/25 05:07:09;;;;;;;;;;;;;;;28.52;51.86;101279.25;5100536;27;19915;-88
2023/08/25 05:09:35;;;;;;;;;;;;;;;28.49;52.17;101280.19;5121171;27;19935;-88
2023/08/25 05:12:00;;;;;;;;;;;;;;;28.52;51.82;101282.84;5133070;27;20369;-88
2023/08/25 05:14:26;;;;;;;;;;;;;;;28.48;52.16;101289.13;5136707;27;19916;-89
2023/08/25 05:16:51;;;;;;;;;;;;;;;28.50;52.07;101284.66;5130144;27;19987;-88
2023/08/25 05:19:17;;;;;;;;;;;;;;;28.52;52.17;101295.38;5112549;27;19972;-89
2023/08/25 05:21:42;;;;;;;;;;;;;;;28.48;51.95;101297.19;5127914;27;20407;-87
2023/08/25 05:24:18;;;;;;;;;;;;;;;28.49;52.12;101298.09;5112735;27;20422;-89
2023/08/25 05:26:43;;;;;;;;;;;;;;;28.49;52.11;101299.00;5108471;27;19915;-89
2023/08/25 05:29:09;;;;;;;;;;;;;;;28.49;51.73;101295.41;5106423;27;19926;-90
2023/08/25 05:31:34;;;;;;;;;;;;;;;28.48;51.99;101299.88;5117551;27;19916;-89
2023/08/25 05:34:00;;;;;;;;;;;;;;;28.46;51.97;101290.94;5107389;28;20325;-88
2023/08/25 05:36:25;;;;;;;;;;;;;;;28.45;52.17;101297.22;5120995;27;19924;-89
2023/08/25 05:38:50;;;;;;;;;;;;;;;28.45;52.16;101302.59;5102630;27;20328;-87
2023/08/25 05:41:16;;;;;;;;;;;;;;;28.46;51.99;101307.06;5121444;27;20006;-87
2023/08/25 05:43:41;;;;;;;;;;;;;;;28.47;52.02;101305.25;5134241;27;20407;-88
2023/08/25 05:46:07;;;;;;;;;;;;;;;28.48;51.75;101309.72;5102766;27;20653;-88
2023/08/25 05:48:33;;;;;;;;;;;;;;;28.46;51.80;101301.69;5121008;27;20014;-87
2023/08/25 05:50:59;;;;;;;;;;;;;;;28.46;51.98;101298.09;5123930;27;19916;-87
2023/08/25 05:53:24;;;;;;;;;;;;;;;28.45;51.99;101310.66;5112447;27;19957;-88
2023/08/25 05:55:50;;;;;;;;;;;;;;;28.46;51.94;101304.38;5111324;27;19922;-89
2023/08/25 05:58:15;;;;;;;;;;;;;;;28.46;51.59;101311.53;5116524;27;20374;-88
2023/08/25 06:00:41;;;;;;;;;;;;;;;28.47;51.96;101307.94;5124597;27;19972;-87
2023/08/25 06:03:08;;;;;;;;;;;;;;;28.44;52.30;101308.88;5121082;27;19929;-86
2023/08/25 06:05:33;;;;;;;;;;;;;;;28.42;52.14;101308.88;5117719;27;19916;-86
2023/08/25 06:07:59;;;;;;;;;;;;;;;28.44;52.02;101322.28;5121500;27;19920;-90
2023/08/25 06:10:26;;;;;;;;;;;;;;;28.43;52.16;101318.72;5120345;28;19922;-90
2023/08/25 06:12:52;;;;;;;;;;;;;;;28.44;52.09;101322.28;5116863;27;20014;-88
2023/08/25 06:15:17;;;;;;;;;;;;;;;28.41;52.22;101317.84;5121550;28;20003;-88
2023/08/25 06:17:43;;;;;;;;;;;;;;;28.43;51.99;101321.41;5118754;28;20014;-87
2023/08/25 06:20:09;;;;;;;;;;;;;;;28.41;52.17;101325.91;5096613;28;20377;-88
2023/08/25 06:22:34;;;;;;;;;;;;;;;28.39;52.22;101325.03;5122171;27;19915;-87
2023/08/25 06:25:00;;;;;;;;;;;;;;;28.41;52.27;101333.97;5121416;27;20380;-87
2023/08/25 06:27:25;;;;;;;;;;;;;;;28.39;52.37;101325.03;5108549;27;19911;-87
2023/08/25 06:29:51;;;;;;;;;;;;;;;28.39;52.36;101322.34;5112082;28;19915;-87
2023/08/25 06:32:17;;;;;;;;;;;;;;;28.40;52.30;101323.25;5126135;27;20308;-88
2023/08/25 06:34:42;;;;;;;;;;;;;;;28.39;52.37;101327.72;5113977;28;19930;-88
2023/08/25 06:37:08;;;;;;;;;;;;;;;28.40;52.37;101321.44;5127293;28;19921;-87
2023/08/25 06:39:34;;;;;;;;;;;;;;;28.39;52.53;101324.16;5135310;27;19964;-86
2023/08/25 06:42:00;;;;;;;;;;;;;;;28.40;52.39;101331.28;5127406;28;20010;-89
2023/08/25 06:44:25;;;;;;;;;;;;;;;28.41;52.16;101343.84;5132122;28;19954;-87
2023/08/25 06:46:51;;;;;;;;;;;;;;;28.39;52.58;101341.16;5105120;27;19920;-87
2023/08/25 06:49:16;;;;;;;;;;;;;;;28.41;52.57;101347.41;5101093;28;20389;-87
2023/08/25 06:51:42;;;;;;;;;;;;;;;28.40;52.61;101350.97;5097946;28;19923;-87
2023/08/25 06:54:07;;;;;;;;;;;;;;;28.40;52.48;101347.41;5102360;28;20017;-87
2023/08/25 06:56:33;;;;;;;;;;;;;;;28.40;52.25;101348.31;5098342;28;19912;-88
2023/08/25 06:58:58;;;;;;;;;;;;;;;28.42;52.36;101345.59;5095150;28;19963;-88
2023/08/25 07:01:24;;;;;;;;;;;;;;;28.42;52.27;101342.91;5073515;28;19916;-88
2023/08/25 07:03:50;;;;;;;;;;;;;;;28.42;52.19;101349.19;5104501;28;20363;-88
2023/08/25 07:06:15;;;;;;;;;;;;;;;28.43;52.47;101342.03;5094956;28;19922;-89
2023/08/25 07:08:41;;;;;;;;;;;;;;;28.43;52.31;101347.41;5098657;28;19920;-90
2023/08/25 07:11:07;;;;;;;;;;;;;;;28.41;52.42;101346.53;5087430;28;20286;-90
2023/08/25 07:13:39;;;;;;;;;;;;;;;28.41;52.47;101341.16;5092768;28;19916;-89
2023/08/25 07:16:08;;;;;;;;;;;;;;;28.36;51.71;101343.91;5103049;28;20036;-92
2023/08/25 07:18:37;;;;;;;;;;;;;;;28.37;52.44;101340.28;5103457;28;19912;-90
2023/08/25 07:21:04;;;;;;;;;;;;;;;28.36;51.93;101345.66;5077508;28;19916;-90
2023/08/25 07:23:32;;;;;;;;;;;;;;;28.35;51.98;101341.22;5098401;28;19916;-89
2023/08/25 07:25:57;;;;;;;;;;;;;;;28.35;52.15;101349.28;5107166;27;19919;-90
2023/08/25 07:28:23;;;;;;;;;;;;;;;28.35;52.05;101355.53;5063704;28;19916;-90
2023/08/25 07:30:50;;;;;;;;;;;;;;;28.37;52.25;101356.41;5093578;28;19919;-89
2023/08/25 07:33:15;;;;;;;;;;;;;;;28.39;51.93;101354.59;5096612;28;19963;-89
2023/08/25 07:35:41;;;;;;;;;;;;;;;28.37;51.60;101352.84;5094568;28;19996;-89
2023/08/25 07:38:07;;;;;;;;;;;;;;;28.37;51.39;101353.72;5100390;28;20309;-88
2023/08/25 07:40:32;;;;;;;;;;;;;;;28.37;51.74;101358.22;5080478;28;19920;-90
2023/08/25 07:42:59;;;;;;;;;;;;;;;28.36;51.67;101357.31;5083137;28;19912;-88
2023/08/25 07:45:27;;;;;;;;;;;;;;;28.37;51.07;101347.47;5090138;27;19942;-88
2023/08/25 07:47:55;;;;;;;;;;;;;;;28.38;51.43;101350.09;5109844;28;20462;-88
2023/08/25 07:50:20;;;;;;;;;;;;;;;28.36;50.99;101343.91;5097028;28;19951;-88
2023/08/25 07:52:46;;;;;;;;;;;;;;;28.36;51.44;101349.28;5070287;28;19939;-86
2023/08/25 07:55:12;;;;;;;;;;;;;;;28.34;51.19;101356.44;5087477;28;19916;-87
2023/08/25 07:57:37;;;;;;;;;;;;;;;28.37;51.06;101355.53;5092780;27;20544;-87
2023/08/25 08:00:04;;;;;;;;;;;;;;;28.39;51.35;101356.41;5097012;28;19912;-87
2023/08/25 08:02:30;;;;;;;;;;;;;;;28.40;51.52;101344.72;5078224;28;19912;-88
2023/08/25 08:04:55;;;;;;;;;;;;;;;28.41;51.09;101349.22;5100332;28;20418;-87
2023/08/25 08:07:21;;;;;;;;;;;;;;;28.40;51.28;101350.97;5108944;28;19920;-87
2023/08/25 08:09:46;;;;;;;;;;;;;;;28.44;50.84;101354.53;5077987;28;20390;-87
2023/08/25 08:12:13;;;;;;;;;;;;;;;28.43;51.04;101347.41;5099468;28;20065;-87
2023/08/25 08:14:38;;;;;;;;;;;;;;;28.40;51.20;101353.66;5082431;28;20010;-87
2023/08/25 08:17:03;;;;;;;;;;;;;;;28.42;51.11;101353.66;5109255;28;20421;-88
2023/08/25 08:19:29;;;;;;;;;;;;;;;28.43;50.97;101352.78;5100469;28;19916;-86
2023/08/25 08:21:54;;;;;;;;;;;;;;;28.46;50.96;101349.16;5098739;28;20038;-88
2023/08/25 08:24:21;;;;;;;;;;;;;;;28.43;50.87;101353.66;5079150;28;19912;-87
2023/08/25 08:26:46;;;;;;;;;;;;;;;28.46;51.04;101346.47;5093993;28;19955;-88
2023/08/25 08:29:12;;;;;;;;;;;;;;;28.46;50.67;101349.16;5111861;28;20011;-87
2023/08/25 08:31:37;;;;;;;;;;;;;;;28.45;51.18;101350.97;5106489;28;19966;-86
2023/08/25 08:34:03;;;;;;;;;;;;;;;28.44;50.78;101343.78;5100279;28;19915;-88
2023/08/25 08:36:29;;;;;;;;;;;;;;;28.43;50.94;101342.03;5098773;27;19916;-86
2023/08/25 08:38:54;;;;;;;;;;;;;;;28.43;50.88;101342.03;5093218;28;19923;-87
2023/08/25 08:41:19;;;;;;;;;;;;;;;28.45;50.85;101336.63;5092575;28;20002;-88
2023/08/25 08:43:45;;;;;;;;;;;;;;;28.42;51.08;101340.22;5092681;28;19918;-88
2023/08/25 08:46:10;;;;;;;;;;;;;;;28.45;51.16;101342.00;5123530;27;20037;-88
2023/08/25 08:48:36;;;;;;;;;;;;;;;28.45;50.78;101337.53;5091826;28;19980;-87
2023/08/25 08:51:02;;;;;;;;;;;;;;;28.46;50.89;101344.66;5112807;27;19920;-87
2023/08/25 08:53:27;;;;;;;;;;;;;;;28.46;51.00;101346.47;5108227;28;20396;-88
2023/08/25 08:55:53;;;;;;;;;;;;;;;28.44;51.37;101338.41;5107981;28;19912;-88
2023/08/25 08:58:20;;;;;;;;;;;;;;;28.45;51.29;101339.31;5109098;28;20413;-88
2023/08/25 09:00:45;;;;;;;;;;;;;;;28.45;51.28;101340.22;5120559;27;20433;-87
2023/08/25 09:03:11;;;;;;;;;;;;;;;28.45;51.24;101337.53;5094190;28;20515;-87
2023/08/25 09:05:37;;;;;;;;;;;;;;;28.44;51.31;101338.41;5089335;28;19939;-89
2023/08/25 09:08:07;;;;;;;;;;;;;;;28.47;51.42;101337.50;5099549;27;20404;-88
2023/08/25 09:10:33;;;;;;;;;;;;;;;28.45;51.60;101332.16;5091131;27;19950;-90
2023/08/25 09:12:59;;;;;;;;;;;;;;;28.45;51.14;101340.22;5092555;28;19922;-88
2023/08/25 09:15:34;;;;;;;;;;;;;;;28.48;51.30;101345.53;5079495;28;19916;-89
2023/08/25 09:18:04;;;;;;;;;;;;;;;28.48;51.44;101339.28;5075296;28;20392;-89
2023/08/25 09:20:30;;;;;;;;;;;;;;;28.46;51.55;101341.97;5121949;27;19922;-89
2023/08/25 09:22:58;;;;;;;;;;;;;;;28.50;51.43;101342.88;5094699;28;19964;-89
2023/08/25 09:25:24;;;;;;;;;;;;;;;28.48;51.55;101340.16;5081692;28;19955;-89
2023/08/25 09:27:59;;;;;;;;;;;;;;;28.48;51.18;101344.66;5098263;28;19958;-88
2023/08/25 09:30:40;;;;;;;;;;;;;;;28.50;51.56;101342.88;5120193;27;19915;-88
2023/08/25 09:33:06;;;;;;;;;;;;;;;28.51;51.63;101339.28;5075348;28;19912;-88
2023/08/25 09:35:34;;;;;;;;;;;;;;;28.50;51.64;101341.06;5092269;28;20407;-88
2023/08/25 09:38:00;;;;;;;;;;;;;;;28.50;51.51;101335.69;5115263;27;19915;-87
2023/08/25 09:40:26;;;;;;;;;;;;;;;28.52;51.46;101344.63;5079433;28;19966;-87
2023/08/25 09:42:58;;;;;;;;;;;;;;;28.54;51.73;101341.94;5091606;28;20010;-87
2023/08/25 09:45:26;;;;;;;;;;;;;;;28.56;51.63;101329.38;5109911;28;19924;-88
2023/08/25 09:47:52;;;;;;;;;;;;;;;28.54;51.60;101332.06;5108934;27;20478;-87
2023/08/25 09:50:19;;;;;;;;;;;;;;;28.52;51.76;101335.69;5107943;27;19994;-87
2023/08/25 09:52:45;;;;;;;;;;;;;;;28.54;51.90;101336.56;5117502;27;20003;-86
2023/08/25 09:55:10;;;;;;;;;;;;;;;28.55;51.42;101330.28;5108834;28;19947;-86
2023/08/25 09:57:36;;;;;;;;;;;;;;;28.54;51.38;101328.50;5086591;28;19916;-86
2023/08/25 10:00:04;;;;;;;;;;;;;;;28.54;51.57;101328.50;5098365;28;19998;-88
2023/08/25 10:02:30;;;;;;;;;;;;;;;28.55;51.57;101325.78;5082605;28;19968;-87
2023/08/25 10:04:56;;;;;;;;;;;;;;;28.53;51.77;101311.50;5091928;28;19915;-87
2023/08/25 10:07:22;;;;;;;;;;;;;;;28.55;51.31;101319.53;5088453;27;19924;-88
2023/08/25 10:09:48;;;;;;;;;;;;;;;28.55;52.13;101314.16;5075156;28;19923;-86
2023/08/25 10:12:14;;;;;;;;;;;;;;;28.57;51.72;101315.00;5105427;27;20308;-87
2023/08/25 10:14:39;;;;;;;;;;;;;;;28.57;51.84;101313.22;5086781;28;20376;-87
2023/08/25 10:17:05;;;;;;;;;;;;;;;28.66;54.51;101316.69;5070463;28;19950;-86
2023/08/25 10:19:36;;;;;;;;;;;;;;;28.55;57.34;101308.78;5106346;28;20324;-86
2023/08/25 10:22:02;;;;;;;;;;;;;;;28.55;54.97;101309.66;5104146;28;19916;-87
2023/08/25 10:24:28;;;;;;;;;;;;;;;28.56;54.36;101300.69;5100824;28;20290;-88
2023/08/25 10:26:54;;;;;;;;;;;;;;;28.54;55.46;101299.81;5113968;27;19916;-88
2023/08/25 10:29:20;;;;;;;;;;;;;;;28.53;54.11;101299.84;5077404;28;19973;-88
2023/08/25 10:31:46;;;;;;;;;;;;;;;28.55;53.89;101301.59;5080115;28;20385;-86
2023/08/25 10:34:34;;;;;;;;;;;;;;;28.58;53.93;101309.63;5087518;28;19977;-85
2023/08/25 10:37:03;;;;;;;;;;;;;;;28.59;54.02;101307.81;5111535;27;20041;-87
2023/08/25 10:39:45;;;;;;;;;;;;;;;28.60;53.86;101309.63;5083381;28;19916;-86
2023/08/25 10:42:10;;;;;;;;;;;;;;;28.58;53.87;101296.19;5101356;28;19916;-86
2023/08/25 10:44:40;;;;;;;;;;;;;;;28.60;53.85;101301.56;5106623;28;19913;-87
2023/08/25 10:47:05;;;;;;;;;;;;;;;28.60;53.60;101299.75;5106714;28;20428;-88
2023/08/25 10:49:36;;;;;;;;;;;;;;;28.59;53.57;101299.75;5082793;28;19919;-86
2023/08/25 10:52:11;;;;;;;;;;;;;;;28.57;53.48;101299.78;5090118;28;19965;-85
2023/08/25 10:54:36;;;;;;;;;;;;;;;28.59;53.47;101295.28;5089148;28;20015;-85
2023/08/25 10:57:17;;;;;;;;;;;;;;;28.58;53.53;101295.31;5091780;28;19978;-87
2023/08/25 10:59:42;;;;;;;;;;;;;;;28.59;53.39;101284.53;5115875;27;19912;-88
2023/08/25 11:02:07;;;;;;;;;;;;;;;28.60;53.63;101288.13;5118468;27;20370;-87
2023/08/25 11:04:37;;;;;;;;;;;;;;;28.58;53.18;101279.19;5119159;27;19982;-86
2023/08/25 11:07:03;;;;;;;;;;;;;;;28.57;53.34;101266.66;5113598;27;19920;-90
2023/08/25 11:09:32;;;;;;;;;;;;;;;28.58;53.72;101271.13;5100678;28;20504;-86
2023/08/25 11:12:03;;;;;;;;;;;;;;;28.59;53.67;101273.78;5109258;28;19916;-88
2023/08/25 11:14:32;;;;;;;;;;;;;;;28.60;53.45;101272.00;5102599;28;19916;-86
2023/08/25 11:16:57;;;;;;;;;;;;;;;28.60;53.41;101262.13;5091766;28;19916;-85
2023/08/25 11:19:24;;;;;;;;;;;;;;;28.62;53.68;101267.50;5110345;27;19919;-85
2023/08/25 11:21:57;;;;;;;;;;;;;;;28.62;53.43;101262.13;5103869;28;19922;-86
2023/08/25 11:24:25;;;;;;;;;;;;;;;28.65;53.64;101270.13;5102895;27;19926;-85
2023/08/25 11:26:50;;;;;;;;;;;;;;;28.65;53.73;101266.56;5098045;27;19943;-85
2023/08/25 11:29:16;;;;;;;;;;;;;;;28.63;53.75;101270.16;5106603;27;19978;-86
2023/08/25 11:31:43;;;;;;;;;;;;;;;28.68;53.84;101253.06;5082220;28;19923;-86
2023/08/25 11:34:08;;;;;;;;;;;;;;;28.69;53.17;101253.06;5071853;27;20419;-86
2023/08/25 11:36:34;;;;;;;;;;;;;;;28.70;53.54;101257.53;5107493;28;19985;-87
2023/08/25 11:38:59;;;;;;;;;;;;;;;28.74;53.23;101258.38;5117103;27;20377;-86
2023/08/25 11:41:25;;;;;;;;;;;;;;;28.73;53.67;101261.97;5109793;28;19916;-86
2023/08/25 11:43:50;;;;;;;;;;;;;;;28.73;53.53;101260.19;5109655;28;19936;-86
2023/08/25 11:46:16;;;;;;;;;;;;;;;28.76;53.19;101253.84;5097404;28;19920;-86
2023/08/25 11:48:42;;;;;;;;;;;;;;;28.75;53.38;101250.28;5129944;27;20444;-86
2023/08/25 11:51:14;;;;;;;;;;;;;;;28.76;53.73;101248.47;5118191;27;19951;-87
2023/08/25 11:53:40;;;;;;;;;;;;;;;28.78;53.34;101257.41;5112038;28;20023;-86
2023/08/25 11:56:06;;;;;;;;;;;;;;;28.81;53.12;101257.38;5123657;27;19924;-88
2023/08/25 11:58:34;;;;;;;;;;;;;;;28.79;53.15;101257.41;5104017;28;20389;-88
2023/08/25 12:01:07;;;;;;;;;;;;;;;28.80;53.59;101258.28;5093904;28;20333;-87
2023/08/25 12:03:36;;;;;;;;;;;;;;;28.80;53.48;101255.59;5112088;27;19952;-85
2023/08/25 12:06:07;;;;;;;;;;;;;;;28.80;53.38;101253.78;5104731;28;19945;-89
2023/08/25 12:08:33;;;;;;;;;;;;;;;28.81;53.29;101260.09;5125886;27;19934;-88
2023/08/25 12:10:59;;;;;;;;;;;;;;;28.90;53.99;101243.81;5114646;28;20014;-90
2023/08/25 12:13:29;;;;;;;;;;;;;;;28.83;53.68;101253.75;5110451;28;19994;-86
2023/08/25 12:15:55;;;;;;;;;;;;;;;28.83;53.59;101252.88;5111294;27;19955;-86
2023/08/25 12:18:21;;;;;;;;;;;;;;;28.70;54.27;101236.03;5093146;27;19955;-87
2023/08/25 12:20:46;;;;;;;;;;;;;;;28.81;54.30;101254.69;5089651;28;19919;-85
2023/08/25 12:23:12;;;;;;;;;;;;;;;28.83;53.97;101252.88;5102101;28;19985;-86
2023/08/25 12:25:38;;;;;;;;;;;;;;;28.81;54.16;101258.28;5101891;28;19915;-86
2023/08/25 12:28:03;;;;;;;;;;;;;;;28.82;53.76;101254.66;5109615;27;20285;-87
2023/08/25 12:30:30;;;;;;;;;;;;;;;28.80;53.76;101263.66;5104918;28;20396;-87